Decoded Metar for PARC (ARCTIC VILLAGE in AK, USA) (IATA:ARC) | Meteo·Mobile Aviation Weather
aviador You're here:

PARC Decoded Metar

ARCTIC VILLAGE in AK, USA
Report Time2018-08-22 05:56:00
UTC Time2018-08-22 07:00:27
Flight Rules mvfr MVFR
WindCalm
Visibility9999 m
Phenomena:N/A
Clouds:Overcast 028 Hf
Expected CloudBase > 2,400 ft AGL from Temp-Dew spread
Ceiling2,800 ft
Temp06°C (ISA -5)
Dew Point00°C (66% RH)
AAT4.0°C
QNH1010 hPa
Density Alt1,696 ft
Elevation2,087 ft
Report Wrong Elevation
Raw Report
PARC 220556Z AUTO 00000KT 10SM OVC028 06/00 A2983 RMK AO2 SLP132
T00610000 10100 20061 53006=

Extra information for PARC:More info

Airport Information Weather charts Add Link Nearby Venues Social comments

AIRNAV info for PARC